Latest Weather Observations for Thredbo Top Station

IDN60901

Issued at 9:02 pm EDT Sunday 24 January 2021 (issued every 10 minutes, with the page automatically refreshed every 10 minutes)

About weather observations | Map of Canberra area stations | Latest observations for Canberra area | Other Formats
Station Details ID: 071032 Name: THREDBO AWS Lat: -36.49 Lon: 148.29 Height: 1957.0 m
Data from the previous 72 hours. | See also: Recent months at Thredbo Top Station
Date/Time
EDT
Temp
°C
App
Temp
°C
Dew
Point
°C
Rel
Hum
%
Delta-T
°C
Wind Press
QNH
hPa
Press
MSL
hPa
Rain since
9am
mm
Dir  Spd
km/h
Gust
km/h
Spd
kts
Gust
kts
24/09:00pm 15.5 14.5 8.7 64 3.8 N 4 9 2 5 1022.7 1013.8 0.0
24/08:30pm 16.5 14.1 4.5 45 6.3 N 6 11 3 6 1022.4 1013.5 0.0
24/08:00pm 17.5 14.3 5.1 44 6.6 NW 11 13 6 7 1022.2 1013.3 0.0
24/07:30pm 18.2 15.1 5.4 43 6.9 NW 11 15 6 8 1022.2 1013.3 0.0
24/07:00pm 19.6 16.3 4.5 37 8.0 NW 11 15 6 8 1021.9 1013.0 0.0
24/06:30pm 20.9 17.2 4.5 34 8.8 NW 13 19 7 10 1021.9 1013.0 0.0
24/06:00pm 21.8 18.1 4.4 32 9.4 WNW 13 20 7 11 1022.0 1013.1 0.0
24/05:30pm 22.1 19.3 5.1 33 9.3 W 9 17 5 9 1022.2 1013.3 0.0
24/05:00pm 22.4 19.2 4.9 32 9.5 WNW 11 24 6 13 1022.3 1013.4 0.0
24/04:30pm 21.5 18.3 5.0 34 9.0 WNW 11 19 6 10 1022.4 1013.5 0.0
24/04:00pm 22.0 18.3 4.6 32 9.4 W 13 24 7 13 1022.5 1013.6 0.0
24/03:30pm 22.3 18.5 5.7 34 9.2 WNW 15 28 8 15 1022.7 1013.8 0.0
24/03:00pm 22.1 18.2 5.5 34 9.1 NW 15 26 8 14 1022.8 1013.9 0.0
24/02:30pm 22.1 17.4 5.9 35 9.0 WNW 20 35 11 19 1023.1 1014.3 0.0
24/02:00pm 21.6 16.3 6.7 38 8.3 W 24 39 13 21 1023.3 1014.4 0.0
24/01:30pm 21.3 14.2 5.6 36 8.6 WNW 32 48 17 26 1022.9 1014.0 0.0
24/01:00pm 20.8 11.5 3.1 31 9.2 WNW 41 54 22 29 1022.9 1014.0 0.0
24/12:30pm 21.2 12.5 4.3 33 9.1 WNW 39 54 21 29 1023.3 1014.4 0.0
24/12:00pm 19.9 11.3 2.7 32 8.9 NW 37 48 20 26 1023.4 1014.5 0.0
24/11:30am 19.7 11.2 3.4 34 8.5 NW 37 48 20 26 1023.5 1014.7 0.0
24/11:18am 19.9 12.5 4.0 35 8.4 WNW 32 50 17 27 1023.6 1014.8 0.0
24/11:00am 19.2 10.3 3.0 34 8.4 NW 39 56 21 30 1023.3 1014.4 0.0
24/10:44am 19.3 10.4 3.1 34 8.4 WNW 39 57 21 31 1023.3 1014.4 0.0
24/10:30am 19.4 10.5 3.2 34 8.4 NW 39 50 21 27 1023.1 1014.3 0.0
24/10:12am 19.2 12.0 3.0 34 8.4 NW 30 48 16 26 1023.3 1014.4 0.0
24/10:00am 18.8 12.4 3.4 36 8.0 NW 26 41 14 22 1023.6 1014.8 0.0
24/09:30am 18.4 10.9 4.2 39 7.5 WNW 33 48 18 26 1023.5 1014.7 0.0
24/09:00am 17.5 10.3 3.0 38 7.4 WNW 30 43 16 23 1023.3 1014.4 0.0
24/08:30am 17.2 9.7 3.5 40 7.1 WNW 32 44 17 24 1022.9 1014.0 0.0
24/08:00am 16.7 9.2 3.4 41 6.8 NW 32 48 17 26 1022.5 1013.6 0.0
24/07:30am 15.9 8.8 3.7 44 6.3 NW 30 43 16 23 1022.0 1013.1 0.0
24/07:00am 15.4 7.9 3.5 45 6.1 NW 32 43 17 23 1021.8 1012.9 0.0
24/06:30am 14.7 6.6 3.2 46 5.8 WNW 35 50 19 27 1021.6 1012.6 0.0
24/06:00am 14.9 7.1 3.1 45 5.9 NW 33 50 18 27 1021.3 1012.4 0.0
24/05:30am 14.9 7.3 2.8 44 6.1 NW 32 46 17 25 1021.3 1012.4 0.0
24/05:00am 15.2 8.5 1.7 40 6.6 NW 26 37 14 20 1021.1 1012.1 0.0
24/04:30am 15.4 8.3 1.5 39 6.8 NW 28 39 15 21 1020.8 1011.9 0.0
24/04:00am 15.8 7.3 0.8 36 7.3 NW 35 46 19 25 1020.7 1011.8 0.0
24/03:30am 16.1 6.8 0.7 35 7.5 NW 39 48 21 26 1020.7 1011.8 0.0
24/03:00am 16.2 8.1 1.1 36 7.4 NW 33 44 18 24 1021.1 1012.1 0.0
24/02:30am 16.4 7.1 0.5 34 7.7 NW 39 46 21 25 1021.1 1012.1 0.0
24/02:00am 16.2 8.4 1.5 37 7.2 NW 32 43 17 23 1021.6 1012.6 0.0
24/01:30am 15.5 9.3 2.3 41 6.6 NW 24 32 13 17 1022.4 1013.5 0.0
24/01:00am 15.1 9.9 3.6 46 5.8 NW 20 26 11 14 1022.9 1014.0 0.0
24/12:30am 14.7 8.7 3.2 46 5.8 NW 24 30 13 16 1023.1 1014.3 0.0
24/12:00am 16.1 8.4 3.2 42 6.5 WNW 33 39 18 21 1023.3 1014.4 0.0
 
Date/Time
EDT
Temp
°C
App
Temp
°C
Dew
Point
°C
Rel
Hum
%
Delta-T
°C
Wind Press
QNH
hPa
Press
MSL
hPa
Rain since
9am
mm
Dir  Spd
km/h
Gust
km/h
Spd
kts
Gust
kts
23/11:30pm 15.4 10.3 3.9 46 5.9 WNW 20 32 11 17 1023.5 1014.7 0.0
23/11:00pm 14.5 10.6 3.6 48 5.5 WNW 13 17 7 9 1023.9 1015.0 0.0
23/10:30pm 14.9 11.4 3.4 46 5.8 W 11 15 6 8 1024.0 1015.2 0.0
23/10:00pm 14.3 11.5 2.9 46 5.7 WNW 7 11 4 6 1023.9 1015.0 0.0
23/09:30pm 14.8 10.9 3.3 46 5.8 WNW 13 19 7 10 1023.6 1014.8 0.0
23/09:00pm 13.6 9.7 3.4 50 5.1 NW 13 17 7 9 1023.1 1014.3 0.0
23/08:30pm 15.7 11.7 2.8 42 6.5 NW 13 19 7 10 1023.1 1014.3 0.0
23/08:00pm 17.4 12.6 2.6 37 7.5 NW 17 30 9 16 1022.9 1014.0 0.0
23/07:30pm 18.5 12.7 2.4 34 8.2 NW 22 33 12 18 1022.4 1013.5 0.0
23/07:00pm 19.0 12.5 2.4 33 8.5 NNW 26 39 14 21 1022.3 1013.4 0.0
23/06:30pm 19.5 12.5 1.9 31 8.9 NNW 28 37 15 20 1021.9 1013.0 0.0
23/06:00pm 19.7 12.8 2.6 32 8.8 NNW 28 35 15 19 1021.8 1012.9 0.0
23/05:30pm 20.3 14.9 2.6 31 9.2 NW 20 33 11 18 1021.9 1013.0 0.0
23/05:00pm 20.6 14.9 2.9 31 9.2 WNW 22 37 12 20 1022.2 1013.3 0.0
23/04:30pm 21.2 16.0 3.4 31 9.4 NW 20 39 11 21 1022.2 1013.3 0.0
23/04:00pm 20.6 14.9 2.9 31 9.2 WNW 22 39 12 21 1022.0 1013.1 0.0
23/03:30pm 20.4 13.8 4.0 34 8.7 WNW 28 39 15 21 1021.9 1013.0 0.0
23/03:00pm 20.2 13.2 4.3 35 8.5 NW 30 48 16 26 1021.9 1013.0 0.0
23/02:30pm 19.7 11.8 4.2 36 8.2 NW 35 59 19 32 1021.7 1012.8 0.0
23/02:00pm 20.4 12.6 4.8 36 8.4 NW 35 54 19 29 1021.6 1012.6 0.0
23/01:30pm 18.8 10.0 3.8 37 7.9 WNW 39 59 21 32 1021.4 1012.5 0.0
23/01:05pm 18.6 9.9 2.0 33 8.4 NW 37 56 20 30 1021.2 1012.3 0.0
23/01:00pm 18.7 9.6 2.1 33 8.4 NW 39 54 21 29 1021.3 1012.4 0.0
23/12:30pm 18.0 7.5 1.5 33 8.2 NW 46 65 25 35 1021.1 1012.1 0.0
23/12:00pm 17.4 6.7 0.1 31 8.3 NW 46 65 25 35 1021.3 1012.4 0.0
23/11:54am 17.5 7.1 -0.2 30 8.5 NW 44 65 24 35 1021.4 1012.5 0.0
23/11:30am 17.6 5.6 -1.1 28 8.8 WNW 52 65 28 35 1021.3 1012.4 0.0
23/11:01am 17.0 4.5 -2.1 27 8.8 NW 54 72 29 39 1020.5 1011.5 0.0
23/11:00am 17.3 4.9 -1.4 28 8.7 NW 54 70 29 38 1020.4 1011.4 0.0
23/10:30am 16.8 4.0 -1.3 29 8.5 WNW 56 70 30 38 1020.5 1011.5 0.0
23/10:07am 16.9 6.0 -1.2 29 8.5 NW 46 65 25 35 1020.5 1011.5 0.0
23/10:00am 16.8 6.3 -0.9 30 8.3 WNW 44 61 24 33 1020.7 1011.8 0.0
23/09:51am 16.7 6.2 -0.9 30 8.3 WNW 44 63 24 34 1021.0 1012.0 0.0
23/09:30am 16.0 5.4 -2.0 29 8.2 WNW 44 59 24 32 1021.1 1012.1 0.0
23/09:00am 16.0 5.6 -2.0 29 8.2 NW 43 59 23 32 1020.7 1011.8 0.0
23/08:30am 15.8 5.3 -2.2 29 8.2 WNW 43 54 23 29 1020.5 1011.5 0.0
23/08:00am 15.6 5.7 -1.0 32 7.7 WNW 41 52 22 28 1020.1 1011.1 0.0
23/07:30am 14.8 5.9 -1.7 32 7.5 NW 35 46 19 25 1020.0 1011.0 0.0
23/07:00am 13.9 5.3 -4.3 28 7.8 NW 32 43 17 23 1019.5 1010.5 0.0
23/06:30am 13.1 3.8 -5.0 28 7.6 NW 35 44 19 24 1019.3 1010.3 0.0
23/06:00am 13.7 4.1 -4.9 27 7.8 NW 37 52 20 28 1018.7 1009.6 0.0
23/05:30am 14.5 4.8 -5.8 24 8.5 WNW 37 46 20 25 1018.8 1009.8 0.0
23/05:00am 14.4 4.7 -5.9 24 8.4 WNW 37 48 20 26 1018.7 1009.6 0.0
23/04:30am 14.4 5.4 -5.9 24 8.4 WNW 33 43 18 23 1018.4 1009.4 0.0
23/04:00am 14.2 6.6 -5.5 25 8.2 WNW 26 39 14 21 1018.7 1009.6 0.0
23/03:30am 13.7 6.9 -4.9 27 7.9 NW 22 33 12 18 1018.7 1009.6 0.0
23/03:00am 14.5 7.7 -5.3 25 8.3 WNW 22 32 12 17 1018.9 1009.9 0.0
23/02:30am 14.0 7.7 -4.2 28 7.8 WNW 20 28 11 15 1019.3 1010.3 0.0
23/02:00am 14.1 7.5 -3.6 29 7.7 WNW 22 30 12 16 1019.6 1010.6 0.0
23/01:30am 13.3 7.3 -3.0 32 7.1 WNW 19 24 10 13 1019.7 1010.8 0.0
23/01:00am 12.8 7.2 -3.0 33 6.9 WNW 17 22 9 12 1020.0 1011.0 0.0
23/12:30am 12.1 6.9 -2.9 35 6.5 WNW 15 20 8 11 1020.1 1011.1 0.0
23/12:00am 12.2 7.5 -2.0 37 6.3 WNW 13 15 7 8 1020.4 1011.4 0.0
 
Date/Time
EDT
Temp
°C
App
Temp
°C
Dew
Point
°C
Rel
Hum
%
Delta-T
°C
Wind Press
QNH
hPa
Press
MSL
hPa
Rain since
9am
mm
Dir  Spd
km/h
Gust
km/h
Spd
kts
Gust
kts
22/11:30pm 12.0 7.3 -1.5 39 6.0 WNW 13 15 7 8 1020.6 1011.6 0.0
22/11:00pm 12.6 8.0 -1.3 38 6.3 WNW 13 17 7 9 1020.7 1011.8 0.0
22/10:30pm 12.0 7.0 -1.5 39 6.0 NW 15 17 8 9 1020.6 1011.6 0.0
22/10:00pm 11.7 6.3 -1.1 41 5.7 NW 17 19 9 10 1020.6 1011.6 0.0
22/09:30pm 13.9 8.5 -1.7 34 7.1 NW 17 20 9 11 1020.2 1011.3 0.0
22/09:00pm 14.5 8.8 -0.4 36 7.0 NW 19 24 10 13 1019.9 1010.9 0.0
22/08:30pm 14.8 10.0 0.3 37 6.9 NW 15 19 8 10 1020.0 1011.0 0.0
22/08:00pm 15.6 10.5 0.6 36 7.2 WNW 17 24 9 13 1019.6 1010.6 0.0
22/07:30pm 16.7 11.3 1.2 35 7.6 NW 19 28 10 15 1019.1 1010.1 0.0
22/07:00pm 17.0 10.9 0.6 33 8.0 WNW 22 33 12 18 1019.0 1010.0 0.0
22/06:30pm 17.4 11.0 1.0 33 8.1 WNW 24 35 13 19 1018.8 1009.8 0.0
22/06:00pm 17.8 11.3 2.5 36 7.8 WNW 26 43 14 23 1018.5 1009.5 0.0
22/05:30pm 17.7 10.1 3.9 40 7.2 WNW 33 52 18 28 1018.2 1009.1 0.0
22/05:02pm 17.1 9.3 3.1 39 7.2 NW 33 52 18 28 1018.0 1009.0 0.0
22/05:00pm 17.0 9.5 3.3 40 7.0 NW 32 48 17 26 1017.9 1008.9 0.0
22/04:45pm 16.9 9.7 2.9 39 7.1 WNW 30 48 16 26 1018.2 1009.1 0.0
22/04:30pm 16.9 10.4 4.9 45 6.3 WNW 28 41 15 22 1018.4 1009.4 0.0
22/04:00pm 16.4 10.1 5.7 49 5.7 WNW 28 41 15 22 1018.3 1009.3 0.0
22/03:44pm 16.6 10.2 5.3 47 6.0 WNW 28 46 15 25 1018.5 1009.5 0.0
22/03:30pm 16.4 9.6 7.1 54 5.1 WNW 32 44 17 24 1018.7 1009.6 0.0
22/03:20pm 16.4 10.2 6.0 50 5.6 NW 28 46 15 25 1018.5 1009.5 0.0
22/03:00pm 15.5 8.7 6.8 56 4.7 NW 32 46 17 25 1018.4 1009.4 0.0
22/02:30pm 15.6 8.6 6.9 56 4.7 NW 33 52 18 28 1018.4 1009.4 0.0
22/02:12pm 15.6 8.4 6.1 53 5.1 NW 33 52 18 28 1018.3 1009.3 0.0
22/02:00pm 15.2 7.1 5.4 52 5.2 NW 37 52 20 28 1018.3 1009.3 0.0
22/01:51pm 15.3 7.6 5.5 52 5.2 NW 35 54 19 29 1018.2 1009.1 0.0
22/01:30pm 14.9 5.4 4.0 48 5.6 NW 43 59 23 32 1018.2 1009.1 0.0
22/01:00pm 15.4 6.1 3.2 44 6.2 NW 41 57 22 31 1018.2 1009.1 0.0
22/12:47pm 15.3 7.1 5.0 50 5.4 WNW 37 56 20 30 1018.4 1009.4 0.0
22/12:30pm 15.5 6.5 4.8 49 5.6 NW 41 56 22 30 1018.4 1009.4 0.0
22/12:00pm 15.3 6.8 5.0 50 5.4 WNW 39 57 21 31 1018.5 1009.5 0.0
22/11:52am 15.3 6.7 4.7 49 5.5 NW 39 57 21 31 1018.5 1009.5 0.0
22/11:30am 15.1 6.7 5.6 53 5.0 NW 39 52 21 28 1018.7 1009.6 0.0
22/11:00am 15.9 8.4 6.3 53 5.2 NW 35 57 19 31 1018.5 1009.5 0.0
22/10:30am 15.2 8.5 7.3 59 4.3 NW 32 52 17 28 1018.7 1009.6 0.0
22/10:22am 15.2 9.3 7.7 61 4.1 NW 28 48 15 26 1018.8 1009.8 0.0
22/10:00am 14.5 8.0 8.2 66 3.5 NW 32 48 17 26 1018.5 1009.5 0.0
22/09:53am 14.3 7.4 8.7 69 3.1 NW 35 54 19 29 1018.3 1009.3 0.0
22/09:30am 13.0 4.8 8.1 72 2.7 NNW 41 57 22 31 1017.9 1008.9 0.0
22/09:03am 12.3 4.4 8.0 75 2.4 NNW 39 59 21 32 1018.2 1009.1 0.0
22/09:00am 12.6 4.8 8.3 75 2.4 NNW 39 52 21 28 1018.3 1009.3 0.0
22/08:30am 11.3 2.1 8.0 80 1.8 NNW 46 59 25 32 1017.9 1008.9 0.0
22/08:00am 11.2 1.2 7.7 79 1.9 NNW 50 63 27 34 1017.6 1008.5 0.0
22/07:30am 10.8 0.3 7.3 79 1.9 NNW 52 61 28 33 1017.3 1008.2 0.0
22/07:00am 10.8 2.0 7.1 78 2.0 NNW 43 56 23 30 1018.0 1009.0 0.0
22/06:30am 10.7 0.0 6.6 76 2.2 NNW 52 63 28 34 1017.4 1008.4 0.0
22/06:00am 11.4 0.0 5.1 65 3.2 NW 54 69 29 37 1016.7 1007.6 0.0
22/05:31am 12.2 2.3 4.9 61 3.7 NNW 46 65 25 35 1017.0 1007.9 0.0
22/05:30am 12.1 1.8 4.8 61 3.7 NNW 48 65 26 35 1017.0 1007.9 0.0
22/05:07am 12.8 3.5 5.0 59 4.0 NW 43 61 23 33 1017.0 1007.9 0.0
22/05:00am 12.6 3.7 5.1 60 3.9 NW 41 52 22 28 1017.4 1008.4 0.0
22/04:30am 12.7 4.1 4.7 58 4.1 NNW 39 52 21 28 1017.2 1008.1 0.0
22/04:00am 12.8 3.8 4.8 58 4.1 NNW 41 48 22 26 1017.1 1008.0 0.0
22/03:30am 12.9 4.2 4.3 56 4.4 NW 39 48 21 26 1017.6 1008.5 0.0
22/03:00am 12.5 4.9 4.0 56 4.3 NW 33 43 18 23 1018.2 1009.1 0.0
22/02:30am 12.8 4.9 4.3 56 4.3 NW 35 44 19 24 1017.8 1008.7 0.0
22/02:00am 12.9 4.6 4.1 55 4.5 NW 37 44 20 24 1018.3 1009.3 0.0
22/01:30am 12.8 5.2 3.7 54 4.6 NW 33 41 18 22 1018.8 1009.8 0.0
22/01:00am 12.4 5.3 3.6 55 4.4 NW 30 37 16 20 1018.8 1009.8 0.0
22/12:30am 11.4 6.3 3.2 57 4.0 NW 19 24 10 13 1019.5 1010.5 0.0
22/12:00am 11.9 7.3 3.7 57 4.1 WNW 17 22 9 12 1019.9 1010.9 0.0
 
Date/Time
EDT
Temp
°C
App
Temp
°C
Dew
Point
°C
Rel
Hum
%
Delta-T
°C
Wind Press
QNH
hPa
Press
MSL
hPa
Rain since
9am
mm
Dir  Spd
km/h
Gust
km/h
Spd
kts
Gust
kts
21/11:30pm 11.2 6.7 4.2 62 3.5 NW 17 24 9 13 1020.1 1011.1 0.0
21/11:00pm 10.4 6.2 3.9 64 3.2 WNW 15 17 8 9 1020.5 1011.5 0.0
21/10:30pm 10.5 6.7 4.0 64 3.2 WNW 13 15 7 8 1020.8 1011.9 0.0
21/10:00pm 10.8 7.0 3.8 62 3.5 WNW 13 15 7 8 1021.1 1012.1 0.0
21/09:30pm 11.0 6.8 3.8 61 3.6 WNW 15 19 8 10 1021.0 1012.0 0.0

Latest Capital City Observations: Canberra | Sydney | Melbourne | Brisbane | Adelaide | Perth | Hobart | Darwin

Other formats

Comma delimited format used in spreadsheet applications
http://www.bom.gov.au/fwo/IDN60903/IDN60903.95909.axf

JavaScript Object Notation format (JSON) in row-major order
http://www.bom.gov.au/fwo/IDN60903/IDN60903.95909.json

Data quality

Most of these data are generated automatically and are frequently updated. Quality checks on data are not normally performed. It is possible for incorrect values to appear. Refer to information at About Latest Weather Observations and please check the disclaimer before using these data.